Thompsonville, MI (49683)

9:55 PM EDT on August 30, 2015 (GMT -0400)
Benzie | | Change Station
CLOSE
Current Station
Personal Weather Station
Location: Benzonia, MI
Elevation: 811 ft
Nearby Weather Stations

Elev 811 ft 44.54 °N, 86.11 °W | Updated 10 minutes ago

Clear
Clear
63.0 °F
Feels Like 63.0 °F
N
0.0
Wind Variable Wind from South
Gusts 0.0 mph

Today
High -- | Low -- °F
--% Chance of Precip.
Yesterday
High -- | Low -- °F
Precip. -- in
7:04 AM 8:24 PM
Full, 97% visible
Pressure 30.00 in
Visibility 10.0 miles
Clouds Clear
Dew Point 54 °F
Humidity 72%
Rainfall 0.00 in
Snow Depth Not available.
UV 0 out of 12
Pollen 10.20 out of 12
Air Quality Not available.
Flu Activity Not available.
METAR KFKS 310133Z AUTO 20003KT 10SM CLR 19/17 A3000 RMK AO2 T01850171
Pressure 30.00 in
Visibility 10.0 miles
Clouds Clear
Dew Point 54 °F
Humidity 72%
Rainfall 0.00 in
Snow Depth Not available.
UV 0 out of 12
Pollen 10.20 out of 12
Air Quality Not available.
Flu Activity Not available.
METAR KFKS 310133Z AUTO 20003KT 10SM CLR 19/17 A3000 RMK AO2 T01850171
Nowcast | as of 9:00 PM EDT on August 30, 2015

At 10 PM...temperature 66. South winds 8 mph. At 12 am...temperature 63. South winds 7 mph. At 2 am...partly cloudy. Areas of fog. Temperature 64. South winds 8 mph. At 4 am...areas of fog. Temperature 64. Southwest winds 7 mph.

×

10-Day Weather Forecast

×

Almanac

Astronomy

Aug. 30, 2015 Rise Set
Actual Time
Civil Twilight
Nautical Twilight
Astronomical Twilight
Moon
Length of Visible Light
Length of Day
Tomorrow will be .
, % of the Moon is Illuminated

Today's Extremes

State Highs State Lows

Community

WunderPhotos

Upload Photos

1,851,145 photos uploaded!

WunderBlogs® & News

Nearby

Air Quality

  Air Quality AQ Index Pollutant
Not available.

Snow Depth

Station Depth Elevation

Earthquake Activity

City Distance Mag. Time & Date
Minimum magnitude displayed is 2.5.

Coastal Water Temperatures

Place Temperature

Stations

Nearby Weather Stations

Station Location Temp. Windchill Dew Point Humidity Wind Precip. Elev Updated Type